sensor_id;sensor_type;location;lat;lon;timestamp;pressure;altitude;pressure_sealevel;temperature;humidity
43125;BME280;49182;50.788;7.318;2022-12-07T00:01:18;100997.00;;;4.59;97.86
43125;BME280;49182;50.788;7.318;2022-12-07T00:03:46;101016.06;;;4.61;98.09
43125;BME280;49182;50.788;7.318;2022-12-07T00:06:14;101011.25;;;4.53;98.11
43125;BME280;49182;50.788;7.318;2022-12-07T00:08:41;100981.56;;;4.38;98.38
43125;BME280;49182;50.788;7.318;2022-12-07T00:11:10;101009.50;;;4.54;98.88
43125;BME280;49182;50.788;7.318;2022-12-07T00:13:38;101011.09;;;4.56;98.54
43125;BME280;49182;50.788;7.318;2022-12-07T00:16:07;100994.66;;;4.54;98.75
43125;BME280;49182;50.788;7.318;2022-12-07T00:18:36;101009.13;;;4.60;98.74
43125;BME280;49182;50.788;7.318;2022-12-07T00:21:04;101011.00;;;4.58;99.10
43125;BME280;49182;50.788;7.318;2022-12-07T00:23:30;100999.69;;;4.57;99.33
43125;BME280;49182;50.788;7.318;2022-12-07T00:26:03;101001.94;;;4.63;98.59
43125;BME280;49182;50.788;7.318;2022-12-07T00:28:30;100981.72;;;4.51;99.00
43125;BME280;49182;50.788;7.318;2022-12-07T00:31:00;100999.09;;;4.52;100.00
43125;BME280;49182;50.788;7.318;2022-12-07T00:33:26;100971.22;;;4.37;100.00
43125;BME280;49182;50.788;7.318;2022-12-07T00:35:56;100989.91;;;4.61;99.69
43125;BME280;49182;50.788;7.318;2022-12-07T00:38:23;100982.91;;;4.61;99.25
43125;BME280;49182;50.788;7.318;2022-12-07T00:40:54;100975.34;;;4.57;99.41
43125;BME280;49182;50.788;7.318;2022-12-07T00:43:21;100982.38;;;4.70;99.11
43125;BME280;49182;50.788;7.318;2022-12-07T00:45:48;100982.88;;;4.77;99.10
43125;BME280;49182;50.788;7.318;2022-12-07T00:48:14;100944.78;;;4.57;98.82
43125;BME280;49182;50.788;7.318;2022-12-07T00:50:41;100973.25;;;4.77;98.98
43125;BME280;49182;50.788;7.318;2022-12-07T00:53:09;100969.22;;;4.72;99.39
43125;BME280;49182;50.788;7.318;2022-12-07T00:55:36;100976.78;;;4.76;99.43
43125;BME280;49182;50.788;7.318;2022-12-07T00:58:03;100976.63;;;4.79;99.27
43125;BME280;49182;50.788;7.318;2022-12-07T01:00:30;100940.31;;;4.59;99.43
43125;BME280;49182;50.788;7.318;2022-12-07T01:02:57;100972.91;;;4.83;99.03
43125;BME280;49182;50.788;7.318;2022-12-07T01:05:24;100971.97;;;4.84;99.13
43125;BME280;49182;50.788;7.318;2022-12-07T01:07:51;100969.28;;;4.86;99.00
43125;BME280;49182;50.788;7.318;2022-12-07T01:10:19;100954.66;;;4.82;99.29
43125;BME280;49182;50.788;7.318;2022-12-07T01:12:45;100964.88;;;4.86;98.41
43125;BME280;49182;50.788;7.318;2022-12-07T01:15:12;100962.06;;;4.89;98.99
43125;BME280;49182;50.788;7.318;2022-12-07T01:17:38;100959.25;;;4.78;99.37
43125;BME280;49182;50.788;7.318;2022-12-07T01:20:06;100967.25;;;4.75;99.69
43125;BME280;49182;50.788;7.318;2022-12-07T01:22:36;100940.03;;;4.64;99.57
43125;BME280;49182;50.788;7.318;2022-12-07T01:25:03;100965.03;;;4.83;99.30
43125;BME280;49182;50.788;7.318;2022-12-07T01:27:32;100951.66;;;4.74;99.11
43125;BME280;49182;50.788;7.318;2022-12-07T01:29:58;100976.53;;;4.81;99.17
43125;BME280;49182;50.788;7.318;2022-12-07T01:32:26;100954.72;;;4.66;99.78
43125;BME280;49182;50.788;7.318;2022-12-07T01:34:53;100983.28;;;4.85;99.48
43125;BME280;49182;50.788;7.318;2022-12-07T01:37:19;100968.09;;;4.76;100.00
43125;BME280;49182;50.788;7.318;2022-12-07T01:39:48;100974.84;;;4.80;99.97
43125;BME280;49182;50.788;7.318;2022-12-07T01:42:15;100971.97;;;4.84;99.52
43125;BME280;49182;50.788;7.318;2022-12-07T01:47:52;100954.44;;;4.71;100.00
43125;BME280;49182;50.788;7.318;2022-12-07T01:50:20;100976.28;;;4.85;100.00
43125;BME280;49182;50.788;7.318;2022-12-07T01:52:49;100977.78;;;4.89;100.00
43125;BME280;49182;50.788;7.318;2022-12-07T01:55:17;100969.66;;;4.94;99.32
43125;BME280;49182;50.788;7.318;2022-12-07T01:57:48;100972.25;;;4.94;99.31
43125;BME280;49182;50.788;7.318;2022-12-07T02:00:16;100968.91;;;4.92;99.61
43125;BME280;49182;50.788;7.318;2022-12-07T02:02:45;100956.09;;;4.87;99.46
43125;BME280;49182;50.788;7.318;2022-12-07T02:05:16;100963.41;;;4.97;99.70
43125;BME280;49182;50.788;7.318;2022-12-07T02:07:45;100960.63;;;5.00;99.84
43125;BME280;49182;50.788;7.318;2022-12-07T02:10:15;100952.56;;;5.03;98.88
43125;BME280;49182;50.788;7.318;2022-12-07T02:12:43;100947.41;;;5.01;98.93
43125;BME280;49182;50.788;7.318;2022-12-07T02:15:11;100954.19;;;5.05;99.25
43125;BME280;49182;50.788;7.318;2022-12-07T02:17:44;100943.78;;;5.04;98.75
43125;BME280;49182;50.788;7.318;2022-12-07T02:20:21;100937.06;;;5.00;98.70
43125;BME280;49182;50.788;7.318;2022-12-07T02:26:04;100940.13;;;5.06;99.11
43125;BME280;49182;50.788;7.318;2022-12-07T02:28:34;100944.28;;;5.10;98.71
43125;BME280;49182;50.788;7.318;2022-12-07T02:31:06;100946.69;;;5.13;98.70
43125;BME280;49182;50.788;7.318;2022-12-07T02:33:37;100951.94;;;5.13;98.51
43125;BME280;49182;50.788;7.318;2022-12-07T02:36:12;100926.50;;;5.01;98.69
43125;BME280;49182;50.788;7.318;2022-12-07T02:38:46;100949.50;;;5.10;98.43
43125;BME280;49182;50.788;7.318;2022-12-07T02:41:20;100938.28;;;5.08;98.74
43125;BME280;49182;50.788;7.318;2022-12-07T02:43:52;100943.91;;;5.16;98.45
43125;BME280;49182;50.788;7.318;2022-12-07T02:46:25;100943.91;;;5.16;98.07
43125;BME280;49182;50.788;7.318;2022-12-07T02:48:54;100941.66;;;5.10;98.67
43125;BME280;49182;50.788;7.318;2022-12-07T02:51:21;100945.84;;;5.13;98.53
43125;BME280;49182;50.788;7.318;2022-12-07T02:53:48;100927.25;;;5.03;98.75
43125;BME280;49182;50.788;7.318;2022-12-07T02:56:21;100926.97;;;5.08;98.82
43125;BME280;49182;50.788;7.318;2022-12-07T02:58:57;100937.84;;;5.16;98.36
43125;BME280;49182;50.788;7.318;2022-12-07T03:01:35;100931.59;;;5.18;98.89
43125;BME280;49182;50.788;7.318;2022-12-07T03:04:16;100927.44;;;5.14;99.12
43125;BME280;49182;50.788;7.318;2022-12-07T03:06:50;100932.69;;;5.14;98.61
43125;BME280;49182;50.788;7.318;2022-12-07T03:09:22;100935.31;;;5.14;98.71
43125;BME280;49182;50.788;7.318;2022-12-07T03:11:58;100932.50;;;5.17;98.71
43125;BME280;49182;50.788;7.318;2022-12-07T03:14:30;100933.25;;;5.19;99.34
43125;BME280;49182;50.788;7.318;2022-12-07T03:17:05;100933.91;;;5.23;98.79
43125;BME280;49182;50.788;7.318;2022-12-07T03:19:37;100932.16;;;5.23;98.77
43125;BME280;49182;50.788;7.318;2022-12-07T03:22:07;100931.22;;;5.24;98.49
43125;BME280;49182;50.788;7.318;2022-12-07T03:24:38;100930.16;;;5.27;99.05
43125;BME280;49182;50.788;7.318;2022-12-07T03:27:08;100930.16;;;5.27;98.62
43125;BME280;49182;50.788;7.318;2022-12-07T03:29:38;100932.88;;;5.11;98.79
43125;BME280;49182;50.788;7.318;2022-12-07T03:32:11;100894.63;;;4.95;99.71
43125;BME280;49182;50.788;7.318;2022-12-07T03:34:43;100934.94;;;5.20;99.45
43125;BME280;49182;50.788;7.318;2022-12-07T03:37:16;100927.84;;;5.22;98.73
43125;BME280;49182;50.788;7.318;2022-12-07T03:39:52;100931.22;;;5.24;99.13
43125;BME280;49182;50.788;7.318;2022-12-07T03:42:24;100928.47;;;5.26;98.98
43125;BME280;49182;50.788;7.318;2022-12-07T03:44:51;100901.47;;;5.11;98.27
43125;BME280;49182;50.788;7.318;2022-12-07T03:47:26;100910.66;;;5.18;98.42
43125;BME280;49182;50.788;7.318;2022-12-07T03:49:58;100921.38;;;5.28;98.82
43125;BME280;49182;50.788;7.318;2022-12-07T03:52:31;100925.97;;;5.24;98.69
43125;BME280;49182;50.788;7.318;2022-12-07T03:55:02;100935.41;;;5.27;99.18
43125;BME280;49182;50.788;7.318;2022-12-07T03:57:31;100903.81;;;5.16;98.59
43125;BME280;49182;50.788;7.318;2022-12-07T03:59:59;100927.09;;;5.35;98.25
43125;BME280;49182;50.788;7.318;2022-12-07T04:02:28;100917.28;;;5.24;98.60
43125;BME280;49182;50.788;7.318;2022-12-07T04:04:55;100918.00;;;5.26;98.60
43125;BME280;49182;50.788;7.318;2022-12-07T04:07:22;100931.84;;;5.28;98.55
43125;BME280;49182;50.788;7.318;2022-12-07T04:09:49;100920.16;;;5.19;98.53
43125;BME280;49182;50.788;7.318;2022-12-07T04:12:16;100923.38;;;5.24;98.26
43125;BME280;49182;50.788;7.318;2022-12-07T04:14:42;100890.34;;;5.08;98.20
43125;BME280;49182;50.788;7.318;2022-12-07T04:17:09;100929.41;;;5.25;98.30
43125;BME280;49182;50.788;7.318;2022-12-07T04:19:37;100931.22;;;5.24;98.39
43125;BME280;49182;50.788;7.318;2022-12-07T04:22:06;100920.91;;;5.21;97.75
43125;BME280;49182;50.788;7.318;2022-12-07T04:24:33;100923.91;;;5.29;97.72
43125;BME280;49182;50.788;7.318;2022-12-07T04:27:00;100925.69;;;5.29;97.79
43125;BME280;49182;50.788;7.318;2022-12-07T04:29:27;100920.91;;;5.21;98.49
43125;BME280;49182;50.788;7.318;2022-12-07T04:31:54;100927.91;;;5.21;98.24
43125;BME280;49182;50.788;7.318;2022-12-07T04:34:21;100903.91;;;5.14;97.94
43125;BME280;49182;50.788;7.318;2022-12-07T04:36:49;100929.31;;;5.12;98.36
43125;BME280;49182;50.788;7.318;2022-12-07T04:39:19;100923.97;;;5.14;98.02
43125;BME280;49182;50.788;7.318;2022-12-07T04:41:46;100926.69;;;5.12;98.19
43125;BME280;49182;50.788;7.318;2022-12-07T04:44:13;100925.59;;;5.16;97.74
43125;BME280;49182;50.788;7.318;2022-12-07T04:46:41;100929.06;;;5.17;97.81
43125;BME280;49182;50.788;7.318;2022-12-07T04:49:08;100934.09;;;5.20;98.06
43125;BME280;49182;50.788;7.318;2022-12-07T04:51:35;100924.28;;;5.23;97.20
43125;BME280;49182;50.788;7.318;2022-12-07T04:54:03;100927.63;;;5.25;97.71
43125;BME280;49182;50.788;7.318;2022-12-07T04:56:30;100929.41;;;5.25;97.31
43125;BME280;49182;50.788;7.318;2022-12-07T04:58:57;100931.94;;;5.26;98.10
43125;BME280;49182;50.788;7.318;2022-12-07T05:01:24;100931.94;;;5.26;97.72
43125;BME280;49182;50.788;7.318;2022-12-07T05:03:50;100908.75;;;5.20;96.79
43125;BME280;49182;50.788;7.318;2022-12-07T05:06:17;100914.91;;;5.19;97.13
43125;BME280;49182;50.788;7.318;2022-12-07T05:08:45;100928.69;;;5.23;96.81
43125;BME280;49182;50.788;7.318;2022-12-07T05:11:14;100931.31;;;5.23;97.93
43125;BME280;49182;50.788;7.318;2022-12-07T05:13:41;100918.13;;;5.24;97.45
43125;BME280;49182;50.788;7.318;2022-12-07T05:16:08;100926.72;;;5.26;96.70
43125;BME280;49182;50.788;7.318;2022-12-07T05:18:34;100926.06;;;5.23;97.19
43125;BME280;49182;50.788;7.318;2022-12-07T05:21:01;100932.22;;;5.22;97.81
43125;BME280;49182;50.788;7.318;2022-12-07T05:23:27;100927.91;;;5.21;97.04
43125;BME280;49182;50.788;7.318;2022-12-07T05:25:54;100934.84;;;5.22;97.28
43125;BME280;49182;50.788;7.318;2022-12-07T05:28:22;100926.53;;;5.15;97.97
43125;BME280;49182;50.788;7.318;2022-12-07T05:30:49;100933.25;;;5.19;96.87
43125;BME280;49182;50.788;7.318;2022-12-07T05:33:15;100916.22;;;5.12;97.17
43125;BME280;49182;50.788;7.318;2022-12-07T05:35:42;100927.84;;;5.22;97.89
43125;BME280;49182;50.788;7.318;2022-12-07T05:38:08;100917.06;;;5.13;97.45
43125;BME280;49182;50.788;7.318;2022-12-07T05:40:36;100931.22;;;5.24;97.67
43125;BME280;49182;50.788;7.318;2022-12-07T05:43:02;100929.41;;;5.25;96.81
43125;BME280;49182;50.788;7.318;2022-12-07T05:45:32;100927.47;;;5.28;97.47
43125;BME280;49182;50.788;7.318;2022-12-07T05:47:58;100916.69;;;5.19;97.31
43125;BME280;49182;50.788;7.318;2022-12-07T05:50:25;100925.03;;;5.25;97.17
43125;BME280;49182;50.788;7.318;2022-12-07T05:52:59;100916.59;;;5.20;97.06
43125;BME280;49182;50.788;7.318;2022-12-07T05:55:26;100913.34;;;5.17;97.62
43125;BME280;49182;50.788;7.318;2022-12-07T05:57:52;100915.22;;;5.15;97.23
43125;BME280;49182;50.788;7.318;2022-12-07T06:00:19;100920.53;;;5.13;97.95
43125;BME280;49182;50.788;7.318;2022-12-07T06:02:47;100916.91;;;5.16;97.53
43125;BME280;49182;50.788;7.318;2022-12-07T06:05:14;100906.97;;;5.07;97.86
43125;BME280;49182;50.788;7.318;2022-12-07T06:07:41;100917.06;;;5.13;97.57
43125;BME280;49182;50.788;7.318;2022-12-07T06:10:08;100922.69;;;5.21;96.61
43125;BME280;49182;50.788;7.318;2022-12-07T06:12:35;100923.81;;;5.17;96.90
43125;BME280;49182;50.788;7.318;2022-12-07T06:15:01;100923.13;;;5.13;97.29
43125;BME280;49182;50.788;7.318;2022-12-07T06:17:28;100923.06;;;5.15;97.44
43125;BME280;49182;50.788;7.318;2022-12-07T06:19:56;100935.59;;;5.10;97.21
43125;BME280;49182;50.788;7.318;2022-12-07T06:22:23;100933.81;;;5.10;96.99
43125;BME280;49182;50.788;7.318;2022-12-07T06:24:49;100909.09;;;5.00;97.17
43125;BME280;49182;50.788;7.318;2022-12-07T06:27:16;100902.59;;;4.93;97.02
43125;BME280;49182;50.788;7.318;2022-12-07T06:29:43;100929.97;;;5.16;97.04
43125;BME280;49182;50.788;7.318;2022-12-07T06:32:09;100929.97;;;5.16;97.22
43125;BME280;49182;50.788;7.318;2022-12-07T06:34:37;100929.31;;;5.12;97.54
43125;BME280;49182;50.788;7.318;2022-12-07T06:37:05;100937.75;;;5.17;97.43
43125;BME280;49182;50.788;7.318;2022-12-07T06:39:31;100941.28;;;5.16;96.83
43125;BME280;49182;50.788;7.318;2022-12-07T06:41:58;100932.28;;;5.06;97.23
43125;BME280;49182;50.788;7.318;2022-12-07T06:44:25;100933.97;;;4.93;97.86
43125;BME280;49182;50.788;7.318;2022-12-07T06:46:52;100924.06;;;4.98;96.73
43125;BME280;49182;50.788;7.318;2022-12-07T06:49:38;100938.28;;;5.08;96.07
43125;BME280;49182;50.788;7.318;2022-12-07T06:52:06;100930.16;;;4.99;97.24
43125;BME280;49182;50.788;7.318;2022-12-07T06:54:33;100948.00;;;5.06;96.46
43125;BME280;49182;50.788;7.318;2022-12-07T06:56:59;100943.59;;;5.07;96.36
43125;BME280;49182;50.788;7.318;2022-12-07T06:59:26;100952.28;;;5.07;96.28
43125;BME280;49182;50.788;7.318;2022-12-07T07:01:52;100938.84;;;4.99;96.81
43125;BME280;49182;50.788;7.318;2022-12-07T07:04:19;100952.28;;;5.07;96.49
43125;BME280;49182;50.788;7.318;2022-12-07T07:06:46;100954.25;;;5.04;96.09
43125;BME280;49182;50.788;7.318;2022-12-07T07:09:15;100929.66;;;4.92;96.31
43125;BME280;49182;50.788;7.318;2022-12-07T07:11:41;100955.03;;;5.06;95.90
43125;BME280;49182;50.788;7.318;2022-12-07T07:14:08;100955.19;;;5.03;96.02
43125;BME280;49182;50.788;7.318;2022-12-07T07:16:35;100955.09;;;5.04;96.41
43125;BME280;49182;50.788;7.318;2022-12-07T07:19:01;100945.28;;;4.94;96.42
43125;BME280;49182;50.788;7.318;2022-12-07T07:21:28;100961.19;;;5.05;96.05
43125;BME280;49182;50.788;7.318;2022-12-07T07:23:55;100957.16;;;4.99;95.82
43125;BME280;49182;50.788;7.318;2022-12-07T07:26:23;100948.81;;;4.93;96.13
43125;BME280;49182;50.788;7.318;2022-12-07T07:28:49;100964.72;;;5.04;95.33
43125;BME280;49182;50.788;7.318;2022-12-07T07:31:16;100960.44;;;5.03;95.92
43125;BME280;49182;50.788;7.318;2022-12-07T07:33:43;100963.69;;;5.06;95.69
43125;BME280;49182;50.788;7.318;2022-12-07T07:36:09;100960.91;;;5.09;95.93
43125;BME280;49182;50.788;7.318;2022-12-07T07:38:36;100958.22;;;5.11;95.79
43125;BME280;49182;50.788;7.318;2022-12-07T07:41:02;100968.84;;;5.08;95.28
43125;BME280;49182;50.788;7.318;2022-12-07T07:43:30;100965.56;;;5.04;94.73
43125;BME280;49182;50.788;7.318;2022-12-07T07:45:58;100958.72;;;5.02;95.53
43125;BME280;49182;50.788;7.318;2022-12-07T07:48:25;100948.16;;;4.89;95.54
43125;BME280;49182;50.788;7.318;2022-12-07T07:50:52;100963.75;;;4.91;95.09
43125;BME280;49182;50.788;7.318;2022-12-07T07:53:18;100968.47;;;5.00;95.43
43125;BME280;49182;50.788;7.318;2022-12-07T07:55:50;100963.97;;;5.02;94.91
43125;BME280;49182;50.788;7.318;2022-12-07T07:58:17;100969.13;;;5.03;94.42
43125;BME280;49182;50.788;7.318;2022-12-07T08:00:45;100969.19;;;5.02;94.88
43125;BME280;49182;50.788;7.318;2022-12-07T08:03:12;100973.59;;;5.01;94.98
43125;BME280;49182;50.788;7.318;2022-12-07T08:05:38;100972.00;;;4.99;95.32
43125;BME280;49182;50.788;7.318;2022-12-07T08:08:05;100974.44;;;5.02;95.32
43125;BME280;49182;50.788;7.318;2022-12-07T08:10:32;100975.47;;;4.99;95.35
43125;BME280;49182;50.788;7.318;2022-12-07T08:12:59;100962.00;;;4.91;95.95
43125;BME280;49182;50.788;7.318;2022-12-07T08:15:26;100944.31;;;4.80;95.94
43125;BME280;49182;50.788;7.318;2022-12-07T08:17:54;100970.81;;;5.04;95.32
43125;BME280;49182;50.788;7.318;2022-12-07T08:20:21;100969.03;;;5.05;96.43
43125;BME280;49182;50.788;7.318;2022-12-07T08:22:48;100973.16;;;5.09;96.08
43125;BME280;49182;50.788;7.318;2022-12-07T08:25:15;100942.75;;;4.92;96.62
43125;BME280;49182;50.788;7.318;2022-12-07T08:27:42;100966.91;;;5.11;96.17
43125;BME280;49182;50.788;7.318;2022-12-07T08:30:09;100966.06;;;5.11;95.93
43125;BME280;49182;50.788;7.318;2022-12-07T08:32:36;100970.44;;;5.10;96.65
43125;BME280;49182;50.788;7.318;2022-12-07T08:35:05;100929.84;;;4.89;96.70
43125;BME280;49182;50.788;7.318;2022-12-07T08:37:31;100966.59;;;5.02;97.19
43125;BME280;49182;50.788;7.318;2022-12-07T08:39:58;100975.97;;;5.06;97.01
43125;BME280;49182;50.788;7.318;2022-12-07T08:42:25;100974.63;;;5.13;97.12
43125;BME280;49182;50.788;7.318;2022-12-07T08:44:52;100966.53;;;5.17;97.24
43125;BME280;49182;50.788;7.318;2022-12-07T08:47:18;100977.47;;;5.24;97.28
43125;BME280;49182;50.788;7.318;2022-12-07T08:49:47;100988.31;;;5.32;96.93
43125;BME280;49182;50.788;7.318;2022-12-07T08:52:17;100986.75;;;5.29;96.90
43125;BME280;49182;50.788;7.318;2022-12-07T08:54:44;100981.31;;;5.33;96.30
43125;BME280;49182;50.788;7.318;2022-12-07T08:57:11;100984.00;;;5.31;97.13
43125;BME280;49182;50.788;7.318;2022-12-07T08:59:38;100973.28;;;5.36;96.97
43125;BME280;49182;50.788;7.318;2022-12-07T09:02:05;100976.81;;;5.20;95.79
43125;BME280;49182;50.788;7.318;2022-12-07T09:04:31;100972.97;;;5.26;96.61
43125;BME280;49182;50.788;7.318;2022-12-07T09:06:58;100977.28;;;5.27;96.53
43125;BME280;49182;50.788;7.318;2022-12-07T09:09:26;100972.53;;;5.34;96.50
43125;BME280;49182;50.788;7.318;2022-12-07T09:11:53;100975.22;;;5.32;96.47
43125;BME280;49182;50.788;7.318;2022-12-07T09:14:19;100983.19;;;5.31;95.63
43125;BME280;49182;50.788;7.318;2022-12-07T09:16:46;100983.84;;;5.34;96.17
43125;BME280;49182;50.788;7.318;2022-12-07T09:19:13;100983.75;;;5.36;96.35
43125;BME280;49182;50.788;7.318;2022-12-07T09:21:39;100981.88;;;5.38;95.86
43125;BME280;49182;50.788;7.318;2022-12-07T09:24:06;100982.63;;;5.40;95.74
43125;BME280;49182;50.788;7.318;2022-12-07T09:26:34;100987.59;;;5.30;96.01
43125;BME280;49182;50.788;7.318;2022-12-07T09:29:02;100984.50;;;5.38;96.17
43125;BME280;49182;50.788;7.318;2022-12-07T09:31:29;100970.28;;;5.27;96.32
43125;BME280;49182;50.788;7.318;2022-12-07T09:33:56;100966.44;;;5.33;96.12
43125;BME280;49182;50.788;7.318;2022-12-07T09:36:23;100982.72;;;5.52;95.66
43125;BME280;49182;50.788;7.318;2022-12-07T09:38:50;100981.53;;;5.58;95.96
43125;BME280;49182;50.788;7.318;2022-12-07T09:41:17;100988.16;;;5.63;96.34
43125;BME280;49182;50.788;7.318;2022-12-07T09:43:45;100978.16;;;5.70;95.52
43125;BME280;49182;50.788;7.318;2022-12-07T09:46:14;100981.31;;;5.75;95.64
43125;BME280;49182;50.788;7.318;2022-12-07T09:48:43;100983.09;;;5.75;95.66
43125;BME280;49182;50.788;7.318;2022-12-07T09:51:14;100976.09;;;5.75;95.90
43125;BME280;49182;50.788;7.318;2022-12-07T09:53:49;100981.63;;;5.70;95.34
43125;BME280;49182;50.788;7.318;2022-12-07T09:56:17;100976.38;;;5.70;95.79
43125;BME280;49182;50.788;7.318;2022-12-07T09:58:46;100981.31;;;5.75;94.37
43125;BME280;49182;50.788;7.318;2022-12-07T10:01:15;100982.06;;;5.77;94.56
43125;BME280;49182;50.788;7.318;2022-12-07T10:03:45;100974.13;;;5.79;93.95
43125;BME280;49182;50.788;7.318;2022-12-07T10:06:15;100963.75;;;5.63;93.39
43125;BME280;49182;50.788;7.318;2022-12-07T10:08:41;100970.75;;;5.62;94.75
43125;BME280;49182;50.788;7.318;2022-12-07T10:11:08;100966.81;;;5.69;94.85
43125;BME280;49182;50.788;7.318;2022-12-07T10:13:37;100950.00;;;5.74;95.10
43125;BME280;49182;50.788;7.318;2022-12-07T10:16:06;100954.31;;;5.89;94.87
43125;BME280;49182;50.788;7.318;2022-12-07T10:18:34;100944.66;;;5.89;94.94
43125;BME280;49182;50.788;7.318;2022-12-07T10:21:13;100954.59;;;5.98;93.97
43125;BME280;49182;50.788;7.318;2022-12-07T10:23:41;100954.00;;;6.07;93.99
43125;BME280;49182;50.788;7.318;2022-12-07T10:26:29;100951.81;;;6.14;93.66
43125;BME280;49182;50.788;7.318;2022-12-07T10:28:58;100960.13;;;6.21;94.13
43125;BME280;49182;50.788;7.318;2022-12-07T10:31:28;100959.00;;;6.25;93.53
43125;BME280;49182;50.788;7.318;2022-12-07T10:33:56;100939.25;;;6.19;93.10
43125;BME280;49182;50.788;7.318;2022-12-07T10:36:25;100944.09;;;6.25;93.36
43125;BME280;49182;50.788;7.318;2022-12-07T10:38:57;100935.22;;;6.28;92.62
43125;BME280;49182;50.788;7.318;2022-12-07T10:41:25;100945.09;;;6.37;92.56
43125;BME280;49182;50.788;7.318;2022-12-07T10:43:53;100941.53;;;6.38;90.48
43125;BME280;49182;50.788;7.318;2022-12-07T10:49:48;100926.72;;;6.37;91.40
43125;BME280;49182;50.788;7.318;2022-12-07T10:52:30;100927.56;;;6.37;91.47
43125;BME280;49182;50.788;7.318;2022-12-07T10:55:08;100920.91;;;6.46;91.62
43125;BME280;49182;50.788;7.318;2022-12-07T10:57:47;100916.41;;;6.61;91.90
43125;BME280;49182;50.788;7.318;2022-12-07T11:00:22;100921.47;;;6.64;91.55
43125;BME280;49182;50.788;7.318;2022-12-07T11:03:19;100902.63;;;6.44;90.31
43125;BME280;49182;50.788;7.318;2022-12-07T11:05:57;100910.22;;;6.62;90.70
43125;BME280;49182;50.788;7.318;2022-12-07T11:08:38;100906.03;;;6.59;89.64
43125;BME280;49182;50.788;7.318;2022-12-07T11:11:13;100908.66;;;6.59;90.03
43125;BME280;49182;50.788;7.318;2022-12-07T11:13:46;100906.53;;;6.52;89.61
43125;BME280;49182;50.788;7.318;2022-12-07T11:16:23;100891.22;;;6.45;90.14
43125;BME280;49182;50.788;7.318;2022-12-07T11:19:03;100899.59;;;6.50;90.12
43125;BME280;49182;50.788;7.318;2022-12-07T11:21:41;100893.09;;;6.43;89.86
43125;BME280;49182;50.788;7.318;2022-12-07T11:24:14;100891.84;;;6.49;90.21
43125;BME280;49182;50.788;7.318;2022-12-07T11:26:56;100887.03;;;6.56;90.52
43125;BME280;49182;50.788;7.318;2022-12-07T11:29:40;100886.84;;;6.59;90.87
43125;BME280;49182;50.788;7.318;2022-12-07T11:32:14;100875.00;;;6.66;90.84
43125;BME280;49182;50.788;7.318;2022-12-07T11:34:51;100874.59;;;6.72;90.71
43125;BME280;49182;50.788;7.318;2022-12-07T11:37:27;100870.28;;;6.71;90.41
43125;BME280;49182;50.788;7.318;2022-12-07T11:40:15;100878.66;;;6.76;90.71
43125;BME280;49182;50.788;7.318;2022-12-07T11:42:46;100864.09;;;6.84;90.69
43125;BME280;49182;50.788;7.318;2022-12-07T11:45:19;100864.09;;;6.84;90.65
43125;BME280;49182;50.788;7.318;2022-12-07T11:47:53;100857.25;;;6.95;90.49
43125;BME280;49182;50.788;7.318;2022-12-07T11:50:26;100848.22;;;6.99;89.47
43125;BME280;49182;50.788;7.318;2022-12-07T11:52:58;100852.09;;;7.06;89.91
43125;BME280;49182;50.788;7.318;2022-12-07T11:55:30;100852.53;;;7.12;89.54
43125;BME280;49182;50.788;7.318;2022-12-07T11:58:03;100842.44;;;7.06;88.85
43125;BME280;49182;50.788;7.318;2022-12-07T12:00:30;100843.09;;;6.97;87.52
43125;BME280;49182;50.788;7.318;2022-12-07T12:03:01;100842.34;;;6.82;87.59
43125;BME280;49182;50.788;7.318;2022-12-07T12:05:28;100844.34;;;6.79;87.13
43125;BME280;49182;50.788;7.318;2022-12-07T12:08:02;100835.09;;;6.73;87.30
43125;BME280;49182;50.788;7.318;2022-12-07T12:10:56;100842.69;;;6.78;85.70
43125;BME280;49182;50.788;7.318;2022-12-07T12:13:45;100834.38;;;6.71;85.83
43125;BME280;49182;50.788;7.318;2022-12-07T12:17:02;100829.72;;;6.49;85.97
43125;BME280;49182;50.788;7.318;2022-12-07T12:19:38;100839.81;;;6.56;86.15
43125;BME280;49182;50.788;7.318;2022-12-07T12:22:12;100838.88;;;6.57;87.26
43125;BME280;49182;50.788;7.318;2022-12-07T12:24:43;100837.63;;;6.62;87.03
43125;BME280;49182;50.788;7.318;2022-12-07T12:27:21;100829.75;;;6.75;86.46
43125;BME280;49182;50.788;7.318;2022-12-07T12:29:53;100829.34;;;6.81;86.17
43125;BME280;49182;50.788;7.318;2022-12-07T12:32:22;100829.34;;;6.81;86.56
43125;BME280;49182;50.788;7.318;2022-12-07T12:35:00;100821.47;;;6.81;86.68
43125;BME280;49182;50.788;7.318;2022-12-07T12:37:40;100829.56;;;6.65;84.29
43125;BME280;49182;50.788;7.318;2022-12-07T12:40:42;100825.84;;;6.55;85.02
43125;BME280;49182;50.788;7.318;2022-12-07T12:43:45;100826.69;;;6.43;85.31
43125;BME280;49182;50.788;7.318;2022-12-07T12:46:37;100832.34;;;6.37;85.98
43125;BME280;49182;50.788;7.318;2022-12-07T12:55:22;100824.94;;;6.04;86.00
43125;BME280;49182;50.788;7.318;2022-12-07T12:58:29;100829.00;;;6.08;86.06
43125;BME280;49182;50.788;7.318;2022-12-07T13:04:26;100822.13;;;5.93;87.65
43125;BME280;49182;50.788;7.318;2022-12-07T13:06:55;100817.97;;;5.90;88.34
43125;BME280;49182;50.788;7.318;2022-12-07T13:09:24;100826.03;;;6.00;87.80
43125;BME280;49182;50.788;7.318;2022-12-07T13:12:00;100820.81;;;6.00;87.37
43125;BME280;49182;50.788;7.318;2022-12-07T13:14:54;100819.13;;;5.99;87.65
43125;BME280;49182;50.788;7.318;2022-12-07T13:17:55;100814.84;;;5.98;87.71
43125;BME280;49182;50.788;7.318;2022-12-07T13:20:46;100810.44;;;5.98;88.08
43125;BME280;49182;50.788;7.318;2022-12-07T13:23:17;100812.94;;;6.00;88.28
43125;BME280;49182;50.788;7.318;2022-12-07T13:25:49;100819.25;;;5.97;88.27
43125;BME280;49182;50.788;7.318;2022-12-07T13:28:18;100811.38;;;5.97;88.60
43125;BME280;49182;50.788;7.318;2022-12-07T13:30:57;100812.84;;;6.01;88.10
43125;BME280;49182;50.788;7.318;2022-12-07T13:33:28;100809.78;;;5.95;88.19
43125;BME280;49182;50.788;7.318;2022-12-07T13:35:55;100802.22;;;5.90;88.40